CheckWX is a tool to help pilots better visualize weather data.  It is not intended as a substitute for an official pre-flight weather briefing.

10:18:21 UTC

FALA METAR
Lanseria Airport
Johannesburg, South Africa
Current

18 mins ago

FALA 161000Z VRB05KT CAVOK 19/M01 Q1031 NOSIG
Observed
Jul-16 @ 10:00 UTC
Wind
  • Variable at 5 KTS
Visibility
10,000+ meters
Flight Rules
VFR
Cloud Levels
  • Clear skies
Temperature
19°C / 66°F
Dewpoint
-1°C / 30°F
Humidity
26%
Altimeter
30.44" Hg
Pressure
1030.92 hPa
Previous

1 hour ago

FALA 160900Z VRB03KT CAVOK 17/M01 Q1032 NOSIG
Observed
Jul-16 @ 09:00 UTC
Wind
  • Variable at 3 KTS
Visibility
10,000+ meters
Flight Rules
VFR
Cloud Levels
  • Clear skies
Temperature
17°C / 63°F
Dewpoint
-1°C / 30°F
Humidity
30%
Altimeter
30.47" Hg
Pressure
1031.92 hPa
Previous

2 hours ago

FALA 160822Z VRB03KT CAVOK 16/M01 Q1032 NOSIG
Observed
Jul-16 @ 08:22 UTC
Wind
  • Variable at 3 KTS
Visibility
10,000+ meters
Flight Rules
VFR
Cloud Levels
  • Clear skies
Temperature
16°C / 61°F
Dewpoint
-1°C / 30°F
Humidity
31%
Altimeter
30.47" Hg
Pressure
1031.92 hPa